sensor_id;sensor_type;location;lat;lon;timestamp;pressure;altitude;pressure_sealevel;temperature;humidity
35908;BME280;22003;50.320;8.054;2023-05-29T01:41:32;99946.19;;;9.04;100.00
35908;BME280;22003;50.320;8.054;2023-05-29T01:43:59;99882.63;;;8.54;100.00
35908;BME280;22003;50.320;8.054;2023-05-29T01:46:24;99966.59;;;8.89;100.00
35908;BME280;22003;50.320;8.054;2023-05-29T01:48:51;99985.94;;;8.89;100.00
35908;BME280;22003;50.320;8.054;2023-05-29T01:51:16;99956.94;;;8.75;100.00
35908;BME280;22003;50.320;8.054;2023-05-29T01:53:42;99978.00;;;8.89;100.00
35908;BME280;22003;50.320;8.054;2023-05-29T01:56:08;99964.13;;;8.73;100.00
35908;BME280;22003;50.320;8.054;2023-05-29T01:58:34;99962.78;;;8.53;100.00
35908;BME280;22003;50.320;8.054;2023-05-29T02:01:01;99976.91;;;8.66;100.00
35908;BME280;22003;50.320;8.054;2023-05-29T02:03:28;99966.94;;;8.57;100.00
35908;BME280;22003;50.320;8.054;2023-05-29T02:05:54;99961.44;;;8.60;100.00
35908;BME280;22003;50.320;8.054;2023-05-29T02:08:20;99967.25;;;8.65;100.00
35908;BME280;22003;50.320;8.054;2023-05-29T02:10:45;99971.69;;;8.65;100.00
35908;BME280;22003;50.320;8.054;2023-05-29T02:13:11;99962.69;;;8.55;100.00
35908;BME280;22003;50.320;8.054;2023-05-29T02:15:36;99963.22;;;8.60;100.00
35908;BME280;22003;50.320;8.054;2023-05-29T02:18:01;99957.66;;;8.64;100.00
35908;BME280;22003;50.320;8.054;2023-05-29T02:20:27;99964.44;;;8.68;100.00
35908;BME280;22003;50.320;8.054;2023-05-29T02:22:52;99952.22;;;8.40;100.00
35908;BME280;22003;50.320;8.054;2023-05-29T02:25:17;99964.66;;;8.38;100.00
35908;BME280;22003;50.320;8.054;2023-05-29T02:27:42;99885.56;;;7.83;100.00
35908;BME280;22003;50.320;8.054;2023-05-29T02:30:08;99957.72;;;8.23;100.00
35908;BME280;22003;50.320;8.054;2023-05-29T02:32:34;99958.03;;;8.31;100.00
35908;BME280;22003;50.320;8.054;2023-05-29T02:34:59;99895.38;;;8.08;100.00
35908;BME280;22003;50.320;8.054;2023-05-29T02:37:25;99958.63;;;8.36;100.00
35908;BME280;22003;50.320;8.054;2023-05-29T02:39:51;99942.19;;;8.31;100.00
35908;BME280;22003;50.320;8.054;2023-05-29T02:42:16;99972.91;;;8.46;100.00
35908;BME280;22003;50.320;8.054;2023-05-29T02:44:41;99978.75;;;8.52;100.00
35908;BME280;22003;50.320;8.054;2023-05-29T02:47:07;99958.13;;;8.17;100.00
35908;BME280;22003;50.320;8.054;2023-05-29T02:49:32;99979.97;;;8.19;100.00
35908;BME280;22003;50.320;8.054;2023-05-29T02:51:57;99971.88;;;8.08;100.00
35908;BME280;22003;50.320;8.054;2023-05-29T02:54:23;99915.34;;;7.71;100.00
35908;BME280;22003;50.320;8.054;2023-05-29T02:56:48;99985.91;;;8.08;100.00
35908;BME280;22003;50.320;8.054;2023-05-29T02:59:14;99989.63;;;8.06;100.00
35908;BME280;22003;50.320;8.054;2023-05-29T03:01:39;99928.28;;;7.61;100.00
35908;BME280;22003;50.320;8.054;2023-05-29T03:04:05;99991.31;;;7.92;100.00
35908;BME280;22003;50.320;8.054;2023-05-29T03:06:30;99975.72;;;7.89;100.00
35908;BME280;22003;50.320;8.054;2023-05-29T03:08:57;99978.25;;;7.91;100.00
35908;BME280;22003;50.320;8.054;2023-05-29T03:11:24;99982.00;;;7.87;100.00
35908;BME280;22003;50.320;8.054;2023-05-29T03:13:50;99988.44;;;7.83;100.00
35908;BME280;22003;50.320;8.054;2023-05-29T03:16:15;99993.59;;;7.84;100.00
35908;BME280;22003;50.320;8.054;2023-05-29T03:18:41;100000.41;;;7.88;100.00
35908;BME280;22003;50.320;8.054;2023-05-29T03:21:06;99987.38;;;7.85;100.00
35908;BME280;22003;50.320;8.054;2023-05-29T03:23:32;100003.88;;;7.75;100.00
35908;BME280;22003;50.320;8.054;2023-05-29T03:25:58;99994.44;;;7.85;100.00
35908;BME280;22003;50.320;8.054;2023-05-29T03:28:23;99999.28;;;7.78;100.00
35908;BME280;22003;50.320;8.054;2023-05-29T03:30:48;100004.38;;;7.67;100.00
35908;BME280;22003;50.320;8.054;2023-05-29T03:33:13;99999.34;;;7.77;100.00
35908;BME280;22003;50.320;8.054;2023-05-29T03:35:39;99994.28;;;7.74;100.00
35908;BME280;22003;50.320;8.054;2023-05-29T03:38:04;99990.41;;;7.79;100.00
35908;BME280;22003;50.320;8.054;2023-05-29T03:40:29;99985.41;;;8.16;100.00
35908;BME280;22003;50.320;8.054;2023-05-29T03:42:55;99985.06;;;8.08;100.00
35908;BME280;22003;50.320;8.054;2023-05-29T03:45:20;99996.81;;;7.89;100.00
35908;BME280;22003;50.320;8.054;2023-05-29T03:47:45;99991.13;;;7.96;100.00
35908;BME280;22003;50.320;8.054;2023-05-29T03:50:10;99973.34;;;7.85;100.00
35908;BME280;22003;50.320;8.054;2023-05-29T03:52:39;99998.94;;;8.11;100.00
35908;BME280;22003;50.320;8.054;2023-05-29T03:55:09;100006.00;;;8.11;100.00
35908;BME280;22003;50.320;8.054;2023-05-29T03:57:38;100008.81;;;8.22;100.00
35908;BME280;22003;50.320;8.054;2023-05-29T04:00:03;100009.16;;;8.44;100.00
35908;BME280;22003;50.320;8.054;2023-05-29T04:02:29;100011.56;;;8.48;100.00
35908;BME280;22003;50.320;8.054;2023-05-29T04:04:54;100027.66;;;8.57;100.00
35908;BME280;22003;50.320;8.054;2023-05-29T04:07:20;100016.75;;;8.49;100.00
35908;BME280;22003;50.320;8.054;2023-05-29T04:09:47;99996.50;;;8.35;100.00
35908;BME280;22003;50.320;8.054;2023-05-29T04:12:12;100038.47;;;8.94;100.00
35908;BME280;22003;50.320;8.054;2023-05-29T04:14:38;100043.00;;;9.05;97.40
35908;BME280;22003;50.320;8.054;2023-05-29T04:17:03;100050.91;;;8.92;99.67
35908;BME280;22003;50.320;8.054;2023-05-29T04:19:29;100051.84;;;9.94;96.51
35908;BME280;22003;50.320;8.054;2023-05-29T04:21:54;100051.50;;;10.48;90.77
35908;BME280;22003;50.320;8.054;2023-05-29T04:24:19;99966.53;;;10.51;89.09
35908;BME280;22003;50.320;8.054;2023-05-29T04:26:45;100051.66;;;11.41;86.23
35908;BME280;22003;50.320;8.054;2023-05-29T04:29:11;100060.97;;;11.69;87.30
35908;BME280;22003;50.320;8.054;2023-05-29T04:31:38;100065.22;;;12.39;83.70
35908;BME280;22003;50.320;8.054;2023-05-29T04:34:03;100072.47;;;12.80;82.34
35908;BME280;22003;50.320;8.054;2023-05-29T04:36:30;100070.28;;;12.85;80.07
35908;BME280;22003;50.320;8.054;2023-05-29T04:38:57;100069.34;;;12.75;80.25
35908;BME280;22003;50.320;8.054;2023-05-29T04:41:24;100040.16;;;13.28;78.96
35908;BME280;22003;50.320;8.054;2023-05-29T04:43:54;100040.88;;;13.19;78.41
35908;BME280;22003;50.320;8.054;2023-05-29T04:46:20;100078.78;;;12.79;79.46
35908;BME280;22003;50.320;8.054;2023-05-29T04:48:45;100092.72;;;13.36;80.15
35908;BME280;22003;50.320;8.054;2023-05-29T04:51:11;100101.19;;;12.98;79.51
35908;BME280;22003;50.320;8.054;2023-05-29T04:53:40;100098.16;;;12.48;81.09
35908;BME280;22003;50.320;8.054;2023-05-29T04:56:06;100103.16;;;12.30;83.13
35908;BME280;22003;50.320;8.054;2023-05-29T04:58:31;100112.56;;;12.45;83.52
35908;BME280;22003;50.320;8.054;2023-05-29T05:00:56;100108.88;;;12.80;84.68
35908;BME280;22003;50.320;8.054;2023-05-29T05:03:23;100112.78;;;12.97;84.19
35908;BME280;22003;50.320;8.054;2023-05-29T05:05:50;100100.69;;;12.72;84.23
35908;BME280;22003;50.320;8.054;2023-05-29T05:08:16;100113.53;;;12.87;84.43
35908;BME280;22003;50.320;8.054;2023-05-29T05:10:42;100113.97;;;13.04;85.33
35908;BME280;22003;50.320;8.054;2023-05-29T05:13:07;100118.53;;;13.13;85.09
35908;BME280;22003;50.320;8.054;2023-05-29T05:15:32;100111.16;;;13.16;83.51
35908;BME280;22003;50.320;8.054;2023-05-29T05:17:57;100121.34;;;13.11;83.82
35908;BME280;22003;50.320;8.054;2023-05-29T05:20:23;100122.88;;;13.25;84.30
35908;BME280;22003;50.320;8.054;2023-05-29T05:22:48;100114.59;;;13.07;85.47
35908;BME280;22003;50.320;8.054;2023-05-29T05:25:13;100124.47;;;13.28;86.68
35908;BME280;22003;50.320;8.054;2023-05-29T05:27:39;100095.63;;;13.01;86.00
35908;BME280;22003;50.320;8.054;2023-05-29T05:30:05;100113.22;;;13.13;87.83
35908;BME280;22003;50.320;8.054;2023-05-29T05:32:31;100112.75;;;13.82;86.21
35908;BME280;22003;50.320;8.054;2023-05-29T05:34:57;100115.56;;;13.59;86.87
35908;BME280;22003;50.320;8.054;2023-05-29T05:37:22;100120.72;;;14.03;87.27
35908;BME280;22003;50.320;8.054;2023-05-29T05:39:49;100055.47;;;13.57;89.61
35908;BME280;22003;50.320;8.054;2023-05-29T05:42:14;100123.56;;;13.80;89.38
35908;BME280;22003;50.320;8.054;2023-05-29T05:44:39;100115.00;;;14.07;89.59
35908;BME280;22003;50.320;8.054;2023-05-29T05:47:05;100116.28;;;14.13;89.83
35908;BME280;22003;50.320;8.054;2023-05-29T05:49:30;100104.66;;;14.44;89.69
35908;BME280;22003;50.320;8.054;2023-05-29T05:51:55;100110.91;;;14.03;89.91
35908;BME280;22003;50.320;8.054;2023-05-29T05:54:21;100117.94;;;14.04;90.45
35908;BME280;22003;50.320;8.054;2023-05-29T05:56:46;100113.22;;;14.48;87.41
35908;BME280;22003;50.320;8.054;2023-05-29T05:59:11;100112.47;;;14.67;87.08
35908;BME280;22003;50.320;8.054;2023-05-29T06:01:36;100089.88;;;14.81;82.90
35908;BME280;22003;50.320;8.054;2023-05-29T06:04:02;100121.75;;;14.92;88.72
35908;BME280;22003;50.320;8.054;2023-05-29T06:06:27;100117.84;;;14.96;83.87
35908;BME280;22003;50.320;8.054;2023-05-29T06:08:52;100126.38;;;14.80;82.65
35908;BME280;22003;50.320;8.054;2023-05-29T06:11:18;100125.13;;;14.84;81.28
35908;BME280;22003;50.320;8.054;2023-05-29T06:13:43;100134.00;;;15.43;82.74
35908;BME280;22003;50.320;8.054;2023-05-29T06:16:08;100114.75;;;15.78;79.18
35908;BME280;22003;50.320;8.054;2023-05-29T06:18:33;100123.59;;;15.69;79.57
35908;BME280;22003;50.320;8.054;2023-05-29T06:20:59;100120.19;;;15.86;78.73
35908;BME280;22003;50.320;8.054;2023-05-29T06:23:25;100134.44;;;15.77;77.97
35908;BME280;22003;50.320;8.054;2023-05-29T06:25:51;100125.56;;;16.23;76.63
35908;BME280;22003;50.320;8.054;2023-05-29T06:28:16;100130.72;;;15.97;76.83
35908;BME280;22003;50.320;8.054;2023-05-29T06:30:41;100124.72;;;15.47;78.04
35908;BME280;22003;50.320;8.054;2023-05-29T06:33:07;100135.81;;;15.81;81.49
35908;BME280;22003;50.320;8.054;2023-05-29T06:35:32;100129.66;;;16.27;76.84
35908;BME280;22003;50.320;8.054;2023-05-29T06:37:57;100095.78;;;15.52;79.18
35908;BME280;22003;50.320;8.054;2023-05-29T06:40:23;100123.25;;;16.01;80.21
35908;BME280;22003;50.320;8.054;2023-05-29T06:42:48;100131.44;;;15.90;80.69
35908;BME280;22003;50.320;8.054;2023-05-29T06:45:13;100077.50;;;15.57;80.21
35908;BME280;22003;50.320;8.054;2023-05-29T06:47:39;100149.88;;;15.54;81.54
35908;BME280;22003;50.320;8.054;2023-05-29T06:50:06;100147.81;;;15.67;84.32
35908;BME280;22003;50.320;8.054;2023-05-29T06:52:31;100141.84;;;15.54;85.00
35908;BME280;22003;50.320;8.054;2023-05-29T06:54:56;100133.72;;;15.26;84.35
35908;BME280;22003;50.320;8.054;2023-05-29T06:57:22;100155.34;;;15.62;84.60
35908;BME280;22003;50.320;8.054;2023-05-29T06:59:47;100152.25;;;15.47;81.68
35908;BME280;22003;50.320;8.054;2023-05-29T07:02:12;100148.34;;;15.42;81.98
35908;BME280;22003;50.320;8.054;2023-05-29T07:04:37;100161.00;;;15.78;85.81
35908;BME280;22003;50.320;8.054;2023-05-29T07:07:03;100161.56;;;15.63;83.74
35908;BME280;22003;50.320;8.054;2023-05-29T07:09:28;100165.63;;;15.86;84.95
35908;BME280;22003;50.320;8.054;2023-05-29T07:11:53;100154.63;;;15.60;80.83
35908;BME280;22003;50.320;8.054;2023-05-29T07:14:18;100139.06;;;15.84;79.49
35908;BME280;22003;50.320;8.054;2023-05-29T07:16:44;100138.97;;;16.14;79.95
35908;BME280;22003;50.320;8.054;2023-05-29T07:19:09;100138.31;;;16.39;79.59
35908;BME280;22003;50.320;8.054;2023-05-29T07:21:36;100143.59;;;16.49;82.10
35908;BME280;22003;50.320;8.054;2023-05-29T07:24:01;100146.28;;;16.21;80.41
35908;BME280;22003;50.320;8.054;2023-05-29T07:26:26;100151.63;;;16.21;79.71
35908;BME280;22003;50.320;8.054;2023-05-29T07:28:52;100147.88;;;16.42;81.65
35908;BME280;22003;50.320;8.054;2023-05-29T07:31:17;100154.59;;;16.46;80.58
35908;BME280;22003;50.320;8.054;2023-05-29T07:33:42;100149.25;;;16.46;79.31
35908;BME280;22003;50.320;8.054;2023-05-29T07:36:07;100140.16;;;16.66;80.15
35908;BME280;22003;50.320;8.054;2023-05-29T07:38:33;100151.81;;;16.65;79.42
35908;BME280;22003;50.320;8.054;2023-05-29T07:40:58;100149.63;;;16.60;77.38
35908;BME280;22003;50.320;8.054;2023-05-29T07:43:24;100158.50;;;16.61;78.11
35908;BME280;22003;50.320;8.054;2023-05-29T07:45:49;100108.94;;;16.57;78.61
35908;BME280;22003;50.320;8.054;2023-05-29T07:48:14;100156.75;;;17.15;75.71
35908;BME280;22003;50.320;8.054;2023-05-29T07:50:40;100114.75;;;16.80;75.28
35908;BME280;22003;50.320;8.054;2023-05-29T07:53:05;100160.22;;;17.07;77.77
35908;BME280;22003;50.320;8.054;2023-05-29T07:55:31;100165.19;;;17.56;78.31
35908;BME280;22003;50.320;8.054;2023-05-29T07:57:56;100149.72;;;17.85;74.61
35908;BME280;22003;50.320;8.054;2023-05-29T08:00:21;100141.38;;;17.53;74.93
35908;BME280;22003;50.320;8.054;2023-05-29T08:02:47;100099.34;;;17.27;76.91
35908;BME280;22003;50.320;8.054;2023-05-29T08:05:12;100155.25;;;17.48;74.71
35908;BME280;22003;50.320;8.054;2023-05-29T08:07:38;100140.31;;;17.63;73.74
35908;BME280;22003;50.320;8.054;2023-05-29T08:10:04;100158.16;;;17.99;73.47
35908;BME280;22003;50.320;8.054;2023-05-29T08:12:30;100152.41;;;17.85;73.22
35908;BME280;22003;50.320;8.054;2023-05-29T08:14:56;100158.59;;;17.68;74.32
35908;BME280;22003;50.320;8.054;2023-05-29T08:17:21;100148.50;;;17.62;72.09
35908;BME280;22003;50.320;8.054;2023-05-29T08:19:46;100154.16;;;17.59;71.11
35908;BME280;22003;50.320;8.054;2023-05-29T08:22:13;100152.63;;;18.18;72.04
35908;BME280;22003;50.320;8.054;2023-05-29T08:24:39;100119.41;;;18.53;70.93
35908;BME280;22003;50.320;8.054;2023-05-29T08:27:04;100104.97;;;18.46;71.78
35908;BME280;22003;50.320;8.054;2023-05-29T08:29:29;100142.13;;;18.67;72.96
35908;BME280;22003;50.320;8.054;2023-05-29T08:31:55;100140.31;;;18.67;73.95
35908;BME280;22003;50.320;8.054;2023-05-29T08:34:21;100144.91;;;18.49;72.17
35908;BME280;22003;50.320;8.054;2023-05-29T08:36:46;100108.75;;;18.27;70.87
35908;BME280;22003;50.320;8.054;2023-05-29T08:39:11;100073.81;;;18.11;70.56
35908;BME280;22003;50.320;8.054;2023-05-29T08:42:12;100144.59;;;18.94;73.16
35908;BME280;22003;50.320;8.054;2023-05-29T08:44:39;100136.22;;;18.55;68.28
35908;BME280;22003;50.320;8.054;2023-05-29T08:47:06;100132.09;;;18.69;69.84
35908;BME280;22003;50.320;8.054;2023-05-29T08:49:42;100100.59;;;18.79;68.50
35908;BME280;22003;50.320;8.054;2023-05-29T08:52:17;100139.06;;;18.96;65.40
35908;BME280;22003;50.320;8.054;2023-05-29T08:54:43;100144.66;;;19.51;72.21
35908;BME280;22003;50.320;8.054;2023-05-29T08:57:10;100139.41;;;19.09;66.76
35908;BME280;22003;50.320;8.054;2023-05-29T08:59:37;100138.88;;;18.97;66.61
35908;BME280;22003;50.320;8.054;2023-05-29T09:02:04;100149.09;;;18.86;68.88
35908;BME280;22003;50.320;8.054;2023-05-29T09:04:30;100129.56;;;19.75;65.54
35908;BME280;22003;50.320;8.054;2023-05-29T09:06:57;100130.69;;;20.13;66.27
35908;BME280;22003;50.320;8.054;2023-05-29T09:09:24;100130.88;;;19.87;66.18
35908;BME280;22003;50.320;8.054;2023-05-29T09:11:52;100128.72;;;19.34;67.73
35908;BME280;22003;50.320;8.054;2023-05-29T09:17:04;100131.56;;;19.32;66.86
35908;BME280;22003;50.320;8.054;2023-05-29T09:19:30;100141.66;;;19.55;67.93
35908;BME280;22003;50.320;8.054;2023-05-29T09:22:07;100132.59;;;19.64;63.97
35908;BME280;22003;50.320;8.054;2023-05-29T09:24:33;100132.72;;;20.11;67.38
35908;BME280;22003;50.320;8.054;2023-05-29T09:27:00;100133.03;;;20.16;64.81
35908;BME280;22003;50.320;8.054;2023-05-29T09:29:27;100134.94;;;19.99;64.70
35908;BME280;22003;50.320;8.054;2023-05-29T09:31:52;100144.59;;;20.33;70.55
35908;BME280;22003;50.320;8.054;2023-05-29T09:34:18;100136.88;;;20.77;65.62
35908;BME280;22003;50.320;8.054;2023-05-29T09:36:43;100131.28;;;20.31;65.93
35908;BME280;22003;50.320;8.054;2023-05-29T09:39:08;100131.84;;;20.19;66.11
35908;BME280;22003;50.320;8.054;2023-05-29T09:41:42;100124.34;;;19.90;64.64
35908;BME280;22003;50.320;8.054;2023-05-29T09:44:07;100099.59;;;20.11;64.15
35908;BME280;22003;50.320;8.054;2023-05-29T09:46:35;100122.22;;;20.33;68.31
35908;BME280;22003;50.320;8.054;2023-05-29T09:49:11;100125.13;;;20.15;64.43
35908;BME280;22003;50.320;8.054;2023-05-29T09:51:36;100125.38;;;20.52;65.79
35908;BME280;22003;50.320;8.054;2023-05-29T09:54:18;100108.03;;;20.55;63.70
35908;BME280;22003;50.320;8.054;2023-05-29T09:56:44;100115.78;;;20.89;60.43
35908;BME280;22003;50.320;8.054;2023-05-29T09:59:14;100080.69;;;20.97;59.31
35908;BME280;22003;50.320;8.054;2023-05-29T10:01:41;100105.66;;;20.91;61.14
35908;BME280;22003;50.320;8.054;2023-05-29T10:04:12;100116.00;;;21.56;56.84
35908;BME280;22003;50.320;8.054;2023-05-29T10:06:43;100129.06;;;21.45;65.34
35908;BME280;22003;50.320;8.054;2023-05-29T10:09:11;100118.53;;;21.04;62.28
35908;BME280;22003;50.320;8.054;2023-05-29T10:11:38;100121.00;;;21.59;64.87
35908;BME280;22003;50.320;8.054;2023-05-29T10:14:09;100119.75;;;21.85;64.92
35908;BME280;22003;50.320;8.054;2023-05-29T10:16:41;100130.25;;;21.42;63.72
35908;BME280;22003;50.320;8.054;2023-05-29T10:19:12;100072.16;;;21.17;63.58
35908;BME280;22003;50.320;8.054;2023-05-29T10:21:39;100115.47;;;20.84;60.40
35908;BME280;22003;50.320;8.054;2023-05-29T10:24:06;100088.88;;;20.81;60.32
35908;BME280;22003;50.320;8.054;2023-05-29T10:26:34;100122.75;;;20.98;63.71
35908;BME280;22003;50.320;8.054;2023-05-29T10:29:08;100106.03;;;20.88;59.25
35908;BME280;22003;50.320;8.054;2023-05-29T10:32:01;100118.06;;;21.23;60.41
35908;BME280;22003;50.320;8.054;2023-05-29T10:35:05;100119.88;;;21.31;58.49
35908;BME280;22003;50.320;8.054;2023-05-29T10:40:12;100099.94;;;22.16;53.04
35908;BME280;22003;50.320;8.054;2023-05-29T10:42:42;100113.63;;;21.53;56.95
35908;BME280;22003;50.320;8.054;2023-05-29T10:45:08;100047.88;;;21.77;52.92
35908;BME280;22003;50.320;8.054;2023-05-29T10:47:34;100092.31;;;21.67;52.98
35908;BME280;22003;50.320;8.054;2023-05-29T10:50:00;100105.25;;;21.86;57.70
35908;BME280;22003;50.320;8.054;2023-05-29T10:52:26;100100.25;;;21.83;54.44
35908;BME280;22003;50.320;8.054;2023-05-29T10:54:53;100109.75;;;22.08;56.90
35908;BME280;22003;50.320;8.054;2023-05-29T10:57:20;100112.72;;;22.43;54.84
35908;BME280;22003;50.320;8.054;2023-05-29T10:59:46;100100.38;;;22.34;55.88
35908;BME280;22003;50.320;8.054;2023-05-29T11:02:17;100096.38;;;22.30;56.47
35908;BME280;22003;50.320;8.054;2023-05-29T11:04:42;100102.19;;;22.04;51.67
35908;BME280;22003;50.320;8.054;2023-05-29T11:10:12;100092.34;;;21.96;50.04
35908;BME280;22003;50.320;8.054;2023-05-29T11:12:57;100098.19;;;21.85;48.46
35908;BME280;22003;50.320;8.054;2023-05-29T11:15:25;100099.34;;;22.20;49.87
35908;BME280;22003;50.320;8.054;2023-05-29T11:17:51;100090.72;;;22.10;49.72
35908;BME280;22003;50.320;8.054;2023-05-29T11:25:25;100075.16;;;22.78;49.38
35908;BME280;22003;50.320;8.054;2023-05-29T11:27:50;100073.97;;;23.66;48.45
35908;BME280;22003;50.320;8.054;2023-05-29T11:30:19;100015.13;;;22.97;48.57
35908;BME280;22003;50.320;8.054;2023-05-29T11:32:46;100078.94;;;22.98;51.91
35908;BME280;22003;50.320;8.054;2023-05-29T11:35:12;100079.47;;;22.72;50.63
35908;BME280;22003;50.320;8.054;2023-05-29T11:37:39;100034.50;;;22.13;49.15
35908;BME280;22003;50.320;8.054;2023-05-29T11:40:08;100078.22;;;22.75;51.09
35908;BME280;22003;50.320;8.054;2023-05-29T11:42:34;100064.41;;;22.99;48.20
35908;BME280;22003;50.320;8.054;2023-05-29T11:45:16;100066.72;;;23.45;47.03
35908;BME280;22003;50.320;8.054;2023-05-29T11:47:55;100061.94;;;22.83;47.70
35908;BME280;22003;50.320;8.054;2023-05-29T11:50:26;100063.19;;;23.02;48.63
35908;BME280;22003;50.320;8.054;2023-05-29T11:52:52;100027.34;;;22.57;48.93
35908;BME280;22003;50.320;8.054;2023-05-29T11:55:21;100063.03;;;23.31;49.28
35908;BME280;22003;50.320;8.054;2023-05-29T11:57:48;100023.78;;;22.92;47.97
35908;BME280;22003;50.320;8.054;2023-05-29T12:00:17;100063.28;;;24.20;51.17
35908;BME280;22003;50.320;8.054;2023-05-29T12:02:44;100055.59;;;24.65;47.31
35908;BME280;22003;50.320;8.054;2023-05-29T12:05:13;100057.19;;;23.49;51.62
35908;BME280;22003;50.320;8.054;2023-05-29T12:07:46;100031.53;;;23.17;48.71
35908;BME280;22003;50.320;8.054;2023-05-29T12:10:13;100069.06;;;23.05;51.25
35908;BME280;22003;50.320;8.054;2023-05-29T12:12:39;100039.06;;;23.00;48.42
35908;BME280;22003;50.320;8.054;2023-05-29T12:15:06;100059.06;;;23.27;50.18
35908;BME280;22003;50.320;8.054;2023-05-29T12:17:32;100052.19;;;23.74;50.22
35908;BME280;22003;50.320;8.054;2023-05-29T12:19:58;100056.97;;;23.72;48.04
35908;BME280;22003;50.320;8.054;2023-05-29T12:22:35;100049.94;;;23.78;48.34
35908;BME280;22003;50.320;8.054;2023-05-29T12:25:10;100016.66;;;23.06;48.72
35908;BME280;22003;50.320;8.054;2023-05-29T12:27:41;100040.69;;;24.00;46.64
35908;BME280;22003;50.320;8.054;2023-05-29T12:32:45;100045.91;;;25.70;49.01
35908;BME280;22003;50.320;8.054;2023-05-29T12:35:18;100045.91;;;25.64;46.74
35908;BME280;22003;50.320;8.054;2023-05-29T12:37:49;100032.69;;;26.14;45.97
35908;BME280;22003;50.320;8.054;2023-05-29T12:40:20;100058.09;;;24.60;50.11
35908;BME280;22003;50.320;8.054;2023-05-29T12:42:48;100052.09;;;24.85;47.24
35908;BME280;22003;50.320;8.054;2023-05-29T12:45:14;100055.88;;;24.97;52.74
35908;BME280;22003;50.320;8.054;2023-05-29T12:47:50;100039.88;;;24.41;49.39
35908;BME280;22003;50.320;8.054;2023-05-29T12:50:26;100052.63;;;24.54;52.77
35908;BME280;22003;50.320;8.054;2023-05-29T12:55:23;100053.41;;;24.41;53.21
35908;BME280;22003;50.320;8.054;2023-05-29T12:57:49;100041.50;;;23.94;47.98
35908;BME280;22003;50.320;8.054;2023-05-29T13:00:14;100040.91;;;25.14;46.99
35908;BME280;22003;50.320;8.054;2023-05-29T13:02:40;100045.91;;;24.43;48.81
35908;BME280;22003;50.320;8.054;2023-05-29T13:05:06;99999.50;;;24.05;48.31
35908;BME280;22003;50.320;8.054;2023-05-29T13:07:32;100044.34;;;24.82;48.66
35908;BME280;22003;50.320;8.054;2023-05-29T13:09:59;100046.84;;;24.22;49.19
35908;BME280;22003;50.320;8.054;2023-05-29T13:12:25;100039.34;;;23.83;48.95
35908;BME280;22003;50.320;8.054;2023-05-29T13:14:50;100038.66;;;24.50;50.21
35908;BME280;22003;50.320;8.054;2023-05-29T13:17:15;100029.63;;;24.36;47.79
35908;BME280;22003;50.320;8.054;2023-05-29T13:19:41;100036.34;;;25.54;48.46
35908;BME280;22003;50.320;8.054;2023-05-29T13:22:07;100029.03;;;25.62;44.36
35908;BME280;22003;50.320;8.054;2023-05-29T13:24:32;99997.09;;;24.30;51.29
35908;BME280;22003;50.320;8.054;2023-05-29T13:26:57;99997.66;;;24.12;49.96
35908;BME280;22003;50.320;8.054;2023-05-29T13:29:22;100025.09;;;24.09;50.72
35908;BME280;22003;50.320;8.054;2023-05-29T13:31:48;100037.09;;;24.28;50.21
35908;BME280;22003;50.320;8.054;2023-05-29T13:34:13;100033.94;;;23.83;49.07
35908;BME280;22003;50.320;8.054;2023-05-29T13:36:38;100032.84;;;23.49;49.34
35908;BME280;22003;50.320;8.054;2023-05-29T13:39:03;100014.50;;;23.73;52.19
35908;BME280;22003;50.320;8.054;2023-05-29T13:41:30;100031.63;;;24.75;48.99
35908;BME280;22003;50.320;8.054;2023-05-29T13:43:56;100033.53;;;24.82;48.70
35908;BME280;22003;50.320;8.054;2023-05-29T13:46:21;99982.00;;;24.55;48.95
35908;BME280;22003;50.320;8.054;2023-05-29T13:48:46;99928.53;;;25.10;47.28
35908;BME280;22003;50.320;8.054;2023-05-29T13:51:11;100035.91;;;25.11;48.29
35908;BME280;22003;50.320;8.054;2023-05-29T13:53:37;100031.97;;;25.27;47.74
35908;BME280;22003;50.320;8.054;2023-05-29T13:56:02;99976.25;;;24.23;49.18
35908;BME280;22003;50.320;8.054;2023-05-29T13:58:27;100022.06;;;24.93;48.90
35908;BME280;22003;50.320;8.054;2023-05-29T14:00:52;100016.84;;;24.23;51.73
35908;BME280;22003;50.320;8.054;2023-05-29T14:03:18;100018.63;;;24.38;49.19
35908;BME280;22003;50.320;8.054;2023-05-29T14:05:46;100003.09;;;24.18;49.54
35908;BME280;22003;50.320;8.054;2023-05-29T14:08:11;100013.75;;;25.01;47.51
35908;BME280;22003;50.320;8.054;2023-05-29T14:10:37;100006.09;;;25.24;49.34
35908;BME280;22003;50.320;8.054;2023-05-29T14:13:02;100029.03;;;25.35;48.29
35908;BME280;22003;50.320;8.054;2023-05-29T14:15:27;100021.25;;;24.92;49.92
35908;BME280;22003;50.320;8.054;2023-05-29T14:17:52;100003.56;;;25.30;47.35
35908;BME280;22003;50.320;8.054;2023-05-29T14:20:18;99999.81;;;25.50;46.88
35908;BME280;22003;50.320;8.054;2023-05-29T14:22:43;100007.31;;;25.75;46.48
35908;BME280;22003;50.320;8.054;2023-05-29T14:25:08;100007.31;;;24.28;50.50
35908;BME280;22003;50.320;8.054;2023-05-29T14:27:34;100002.63;;;24.08;52.49
35908;BME280;22003;50.320;8.054;2023-05-29T14:29:59;99944.72;;;24.57;49.18
35908;BME280;22003;50.320;8.054;2023-05-29T14:32:25;99997.94;;;25.51;48.03
35908;BME280;22003;50.320;8.054;2023-05-29T14:34:50;100004.38;;;25.83;46.88
35908;BME280;22003;50.320;8.054;2023-05-29T14:37:17;100004.81;;;25.67;47.84
35908;BME280;22003;50.320;8.054;2023-05-29T14:39:42;100011.03;;;24.88;50.86
35908;BME280;22003;50.320;8.054;2023-05-29T14:42:08;100003.44;;;24.09;48.93
35908;BME280;22003;50.320;8.054;2023-05-29T14:44:33;100007.41;;;24.06;50.21
35908;BME280;22003;50.320;8.054;2023-05-29T14:46:58;99998.56;;;25.40;49.11
35908;BME280;22003;50.320;8.054;2023-05-29T14:49:24;99992.13;;;25.27;46.88